sensor_id;sensor_type;location;lat;lon;timestamp;pressure;altitude;pressure_sealevel;temperature;humidity
59103;BME280;43999;51.660;5.616;2023-05-23T00:01:29;101638.56;;;15.00;100.00
59103;BME280;43999;51.660;5.616;2023-05-23T00:03:57;101644.97;;;14.96;100.00
59103;BME280;43999;51.660;5.616;2023-05-23T00:06:25;101641.28;;;14.98;100.00
59103;BME280;43999;51.660;5.616;2023-05-23T00:08:53;101640.44;;;14.98;100.00
59103;BME280;43999;51.660;5.616;2023-05-23T00:11:21;101631.66;;;14.97;100.00
59103;BME280;43999;51.660;5.616;2023-05-23T00:13:53;101641.28;;;14.98;100.00
59103;BME280;43999;51.660;5.616;2023-05-23T00:16:21;101640.59;;;14.95;100.00
59103;BME280;43999;51.660;5.616;2023-05-23T00:18:49;101635.41;;;14.93;100.00
59103;BME280;43999;51.660;5.616;2023-05-23T00:21:18;101641.66;;;14.92;100.00
59103;BME280;43999;51.660;5.616;2023-05-23T00:23:46;101644.22;;;14.94;100.00
59103;BME280;43999;51.660;5.616;2023-05-23T00:26:13;101645.88;;;14.95;100.00
59103;BME280;43999;51.660;5.616;2023-05-23T00:28:45;101656.63;;;14.92;100.00
59103;BME280;43999;51.660;5.616;2023-05-23T00:31:18;101656.72;;;14.90;100.00
59103;BME280;43999;51.660;5.616;2023-05-23T00:33:47;101649.66;;;14.91;100.00
59103;BME280;43999;51.660;5.616;2023-05-23T00:36:15;101655.13;;;14.87;100.00
59103;BME280;43999;51.660;5.616;2023-05-23T00:38:42;101652.50;;;14.87;100.00
59103;BME280;43999;51.660;5.616;2023-05-23T00:41:19;101657.94;;;14.84;100.00
59103;BME280;43999;51.660;5.616;2023-05-23T00:43:47;101653.03;;;14.78;100.00
59103;BME280;43999;51.660;5.616;2023-05-23T00:46:15;101652.16;;;14.78;100.00
59103;BME280;43999;51.660;5.616;2023-05-23T00:48:43;101659.22;;;14.77;100.00
59103;BME280;43999;51.660;5.616;2023-05-23T00:51:11;101665.53;;;14.75;100.00
59103;BME280;43999;51.660;5.616;2023-05-23T00:53:41;101668.16;;;14.75;100.00
59103;BME280;43999;51.660;5.616;2023-05-23T00:56:09;101666.59;;;14.72;100.00
59103;BME280;43999;51.660;5.616;2023-05-23T00:58:39;101665.72;;;14.72;100.00
59103;BME280;43999;51.660;5.616;2023-05-23T01:01:07;101660.59;;;14.68;100.00
59103;BME280;43999;51.660;5.616;2023-05-23T01:03:35;101658.25;;;14.64;100.00
59103;BME280;43999;51.660;5.616;2023-05-23T01:06:03;101666.06;;;14.65;100.00
59103;BME280;43999;51.660;5.616;2023-05-23T01:08:32;101666.94;;;14.66;100.00
59103;BME280;43999;51.660;5.616;2023-05-23T01:11:05;101668.13;;;14.60;100.00
59103;BME280;43999;51.660;5.616;2023-05-23T01:13:56;101667.25;;;14.60;100.00
59103;BME280;43999;51.660;5.616;2023-05-23T01:16:38;101671.75;;;14.58;100.00
59103;BME280;43999;51.660;5.616;2023-05-23T01:19:58;101681.53;;;14.56;100.00
59103;BME280;43999;51.660;5.616;2023-05-23T01:23:09;101668.53;;;14.52;100.00
59103;BME280;43999;51.660;5.616;2023-05-23T01:28:57;101675.03;;;14.47;100.00
59103;BME280;43999;51.660;5.616;2023-05-23T01:31:56;101681.16;;;14.47;100.00
59103;BME280;43999;51.660;5.616;2023-05-23T01:34:26;101673.41;;;14.44;100.00
59103;BME280;43999;51.660;5.616;2023-05-23T01:36:58;101683.88;;;14.46;100.00
59103;BME280;43999;51.660;5.616;2023-05-23T01:39:25;101680.56;;;14.42;100.00
59103;BME280;43999;51.660;5.616;2023-05-23T01:41:54;101679.88;;;14.39;100.00
59103;BME280;43999;51.660;5.616;2023-05-23T01:44:23;101685.31;;;14.35;100.00
59103;BME280;43999;51.660;5.616;2023-05-23T01:46:51;101678.44;;;14.33;100.00
59103;BME280;43999;51.660;5.616;2023-05-23T01:49:19;101689.25;;;14.28;100.00
59103;BME280;43999;51.660;5.616;2023-05-23T01:51:51;101686.63;;;14.28;100.00
59103;BME280;43999;51.660;5.616;2023-05-23T01:54:19;101697.06;;;14.30;100.00
59103;BME280;43999;51.660;5.616;2023-05-23T01:56:48;101698.50;;;14.35;100.00
59103;BME280;43999;51.660;5.616;2023-05-23T01:59:17;101703.19;;;14.30;100.00
59103;BME280;43999;51.660;5.616;2023-05-23T02:01:45;101714.66;;;14.29;100.00
59103;BME280;43999;51.660;5.616;2023-05-23T02:04:13;101706.00;;;14.27;100.00
59103;BME280;43999;51.660;5.616;2023-05-23T02:06:41;101715.00;;;14.23;100.00
59103;BME280;43999;51.660;5.616;2023-05-23T02:09:12;101707.09;;;14.23;100.00
59103;BME280;43999;51.660;5.616;2023-05-23T02:11:40;101723.06;;;14.20;100.00
59103;BME280;43999;51.660;5.616;2023-05-23T02:14:09;101720.19;;;14.25;100.00
59103;BME280;43999;51.660;5.616;2023-05-23T02:16:40;101706.66;;;14.15;100.00
59103;BME280;43999;51.660;5.616;2023-05-23T02:19:09;101711.19;;;14.13;100.00
59103;BME280;43999;51.660;5.616;2023-05-23T02:21:38;101706.00;;;14.11;100.00
59103;BME280;43999;51.660;5.616;2023-05-23T02:24:06;101712.28;;;14.09;100.00
59103;BME280;43999;51.660;5.616;2023-05-23T02:26:33;101720.28;;;14.07;100.00
59103;BME280;43999;51.660;5.616;2023-05-23T02:29:01;101717.88;;;14.03;100.00
59103;BME280;43999;51.660;5.616;2023-05-23T02:31:30;101717.28;;;13.97;100.00
59103;BME280;43999;51.660;5.616;2023-05-23T02:33:58;101724.50;;;13.94;100.00
59103;BME280;43999;51.660;5.616;2023-05-23T02:36:26;101716.84;;;13.89;100.00
59103;BME280;43999;51.660;5.616;2023-05-23T02:38:54;101711.66;;;13.88;100.00
59103;BME280;43999;51.660;5.616;2023-05-23T02:41:21;101707.59;;;13.82;100.00
59103;BME280;43999;51.660;5.616;2023-05-23T02:43:49;101714.63;;;13.81;100.00
59103;BME280;43999;51.660;5.616;2023-05-23T02:46:19;101712.16;;;13.78;100.00
59103;BME280;43999;51.660;5.616;2023-05-23T02:48:47;101712.22;;;13.77;100.00
59103;BME280;43999;51.660;5.616;2023-05-23T02:51:15;101713.50;;;13.70;100.00
59103;BME280;43999;51.660;5.616;2023-05-23T02:53:43;101716.66;;;13.76;100.00
59103;BME280;43999;51.660;5.616;2023-05-23T02:56:11;101716.72;;;13.75;100.00
59103;BME280;43999;51.660;5.616;2023-05-23T02:58:39;101711.72;;;13.70;100.00
59103;BME280;43999;51.660;5.616;2023-05-23T03:01:07;101719.63;;;13.70;100.00
59103;BME280;43999;51.660;5.616;2023-05-23T03:03:34;101717.22;;;13.66;100.00
59103;BME280;43999;51.660;5.616;2023-05-23T03:06:04;101710.25;;;13.65;100.00
59103;BME280;43999;51.660;5.616;2023-05-23T03:08:32;101714.59;;;13.66;100.00
59103;BME280;43999;51.660;5.616;2023-05-23T03:10:59;101717.22;;;13.66;100.00
59103;BME280;43999;51.660;5.616;2023-05-23T03:13:28;101726.03;;;13.65;100.00
59103;BME280;43999;51.660;5.616;2023-05-23T03:15:58;101714.84;;;13.61;100.00
59103;BME280;43999;51.660;5.616;2023-05-23T03:18:25;101714.66;;;13.64;100.00
59103;BME280;43999;51.660;5.616;2023-05-23T03:20:55;101723.41;;;13.65;100.00
59103;BME280;43999;51.660;5.616;2023-05-23T03:23:24;101718.16;;;13.65;100.00
59103;BME280;43999;51.660;5.616;2023-05-23T03:25:51;101725.22;;;13.64;100.00
59103;BME280;43999;51.660;5.616;2023-05-23T03:28:20;101736.56;;;13.65;100.00
59103;BME280;43999;51.660;5.616;2023-05-23T03:30:47;101725.28;;;13.62;100.00
59103;BME280;43999;51.660;5.616;2023-05-23T03:33:14;101739.06;;;13.68;100.00
59103;BME280;43999;51.660;5.616;2023-05-23T03:35:42;101738.13;;;13.69;100.00
59103;BME280;43999;51.660;5.616;2023-05-23T03:38:11;101743.16;;;13.73;100.00
59103;BME280;43999;51.660;5.616;2023-05-23T03:40:41;101739.84;;;13.70;100.00
59103;BME280;43999;51.660;5.616;2023-05-23T03:43:08;101737.97;;;13.72;100.00
59103;BME280;43999;51.660;5.616;2023-05-23T03:45:39;101734.34;;;13.74;100.00
59103;BME280;43999;51.660;5.616;2023-05-23T03:48:12;101741.38;;;13.74;100.00
59103;BME280;43999;51.660;5.616;2023-05-23T03:50:41;101739.44;;;13.77;100.00
59103;BME280;43999;51.660;5.616;2023-05-23T03:53:11;101741.38;;;13.74;100.00
59103;BME280;43999;51.660;5.616;2023-05-23T03:55:38;101744.63;;;13.79;100.00
59103;BME280;43999;51.660;5.616;2023-05-23T03:58:09;101745.13;;;13.86;100.00
59103;BME280;43999;51.660;5.616;2023-05-23T04:00:43;101748.84;;;13.81;100.00
59103;BME280;43999;51.660;5.616;2023-05-23T04:03:12;101755.91;;;13.81;100.00
59103;BME280;43999;51.660;5.616;2023-05-23T04:05:43;101754.84;;;13.85;100.00
59103;BME280;43999;51.660;5.616;2023-05-23T04:08:11;101753.03;;;13.86;100.00
59103;BME280;43999;51.660;5.616;2023-05-23T04:10:39;101759.94;;;13.88;100.00
59103;BME280;43999;51.660;5.616;2023-05-23T04:13:10;101753.72;;;13.89;100.00
59103;BME280;43999;51.660;5.616;2023-05-23T04:15:37;101759.78;;;13.91;100.00
59103;BME280;43999;51.660;5.616;2023-05-23T04:18:09;101762.34;;;13.93;100.00
59103;BME280;43999;51.660;5.616;2023-05-23T04:20:37;101753.56;;;13.92;100.00
59103;BME280;43999;51.660;5.616;2023-05-23T04:23:04;101769.28;;;13.94;100.00
59103;BME280;43999;51.660;5.616;2023-05-23T04:25:36;101759.69;;;13.93;100.00
59103;BME280;43999;51.660;5.616;2023-05-23T04:28:11;101758.91;;;13.91;100.00
59103;BME280;43999;51.660;5.616;2023-05-23T04:30:38;101766.13;;;13.87;100.00
59103;BME280;43999;51.660;5.616;2023-05-23T04:33:06;101772.41;;;13.85;100.00
59103;BME280;43999;51.660;5.616;2023-05-23T04:35:34;101776.31;;;13.77;100.00
59103;BME280;43999;51.660;5.616;2023-05-23T04:38:06;101779.63;;;13.81;100.00
59103;BME280;43999;51.660;5.616;2023-05-23T04:40:33;101777.84;;;13.81;100.00
59103;BME280;43999;51.660;5.616;2023-05-23T04:43:15;101791.97;;;13.80;100.00
59103;BME280;43999;51.660;5.616;2023-05-23T04:45:55;101786.78;;;13.79;100.00
59103;BME280;43999;51.660;5.616;2023-05-23T04:48:54;101791.25;;;13.77;100.00
59103;BME280;43999;51.660;5.616;2023-05-23T04:51:23;101795.84;;;13.73;100.00
59103;BME280;43999;51.660;5.616;2023-05-23T04:53:55;101797.78;;;13.70;100.00
59103;BME280;43999;51.660;5.616;2023-05-23T04:56:24;101800.66;;;13.65;100.00
59103;BME280;43999;51.660;5.616;2023-05-23T04:58:56;101806.69;;;13.67;100.00
59103;BME280;43999;51.660;5.616;2023-05-23T05:01:28;101803.28;;;13.65;100.00
59103;BME280;43999;51.660;5.616;2023-05-23T05:03:57;101809.31;;;13.67;100.00
59103;BME280;43999;51.660;5.616;2023-05-23T05:06:25;101810.47;;;13.61;100.00
59103;BME280;43999;51.660;5.616;2023-05-23T05:08:54;101812.13;;;13.64;100.00
59103;BME280;43999;51.660;5.616;2023-05-23T05:11:23;101813.91;;;13.63;100.00
59103;BME280;43999;51.660;5.616;2023-05-23T05:13:52;101815.66;;;13.63;100.00
59103;BME280;43999;51.660;5.616;2023-05-23T05:16:20;101822.88;;;13.59;100.00
59103;BME280;43999;51.660;5.616;2023-05-23T05:18:49;101820.25;;;13.59;100.00
59103;BME280;43999;51.660;5.616;2023-05-23T05:21:19;101824.75;;;13.57;100.00
59103;BME280;43999;51.660;5.616;2023-05-23T05:23:47;101821.31;;;13.55;100.00
59103;BME280;43999;51.660;5.616;2023-05-23T05:26:16;101837.03;;;13.57;100.00
59103;BME280;43999;51.660;5.616;2023-05-23T05:28:45;101838.47;;;13.47;100.00
59103;BME280;43999;51.660;5.616;2023-05-23T05:31:12;101827.34;;;13.40;100.00
59103;BME280;43999;51.660;5.616;2023-05-23T05:33:42;101829.06;;;13.41;100.00
59103;BME280;43999;51.660;5.616;2023-05-23T05:36:15;101831.16;;;13.34;100.00
59103;BME280;43999;51.660;5.616;2023-05-23T05:38:48;101844.25;;;13.36;100.00
59103;BME280;43999;51.660;5.616;2023-05-23T05:41:20;101845.19;;;13.35;100.00
59103;BME280;43999;51.660;5.616;2023-05-23T05:43:50;101837.47;;;13.30;100.00
59103;BME280;43999;51.660;5.616;2023-05-23T05:46:18;101842.03;;;13.26;100.00
59103;BME280;43999;51.660;5.616;2023-05-23T05:48:46;101851.09;;;13.21;100.00
59103;BME280;43999;51.660;5.616;2023-05-23T05:51:22;101859.19;;;13.16;100.00
59103;BME280;43999;51.660;5.616;2023-05-23T05:53:50;101861.06;;;13.14;100.00
59103;BME280;43999;51.660;5.616;2023-05-23T05:56:19;101863.06;;;13.09;100.00
59103;BME280;43999;51.660;5.616;2023-05-23T05:58:48;101867.63;;;13.05;100.00
59103;BME280;43999;51.660;5.616;2023-05-23T06:01:16;101874.53;;;13.08;100.00
59103;BME280;43999;51.660;5.616;2023-05-23T06:03:44;101884.19;;;13.07;100.00
59103;BME280;43999;51.660;5.616;2023-05-23T06:06:14;101874.59;;;13.06;100.00
59103;BME280;43999;51.660;5.616;2023-05-23T06:08:45;101878.34;;;13.01;100.00
59103;BME280;43999;51.660;5.616;2023-05-23T06:11:16;101881.72;;;13.04;100.00
59103;BME280;43999;51.660;5.616;2023-05-23T06:13:45;101877.28;;;13.05;100.00
59103;BME280;43999;51.660;5.616;2023-05-23T06:16:13;101884.41;;;13.03;100.00
59103;BME280;43999;51.660;5.616;2023-05-23T06:18:42;101889.53;;;13.06;100.00
59103;BME280;43999;51.660;5.616;2023-05-23T06:21:10;101894.88;;;13.04;100.00
59103;BME280;43999;51.660;5.616;2023-05-23T06:23:37;101890.03;;;12.95;100.00
59103;BME280;43999;51.660;5.616;2023-05-23T06:26:05;101898.78;;;12.96;100.00
59103;BME280;43999;51.660;5.616;2023-05-23T06:28:37;101899.84;;;12.91;100.00
59103;BME280;43999;51.660;5.616;2023-05-23T06:31:08;101905.81;;;12.95;100.00
59103;BME280;43999;51.660;5.616;2023-05-23T06:33:38;101903.41;;;12.90;100.00
59103;BME280;43999;51.660;5.616;2023-05-23T06:36:06;101912.22;;;12.89;100.00
59103;BME280;43999;51.660;5.616;2023-05-23T06:38:34;101914.72;;;12.93;100.00
59103;BME280;43999;51.660;5.616;2023-05-23T06:41:02;101914.72;;;12.93;100.00
59103;BME280;43999;51.660;5.616;2023-05-23T06:43:30;101921.63;;;12.95;100.00
59103;BME280;43999;51.660;5.616;2023-05-23T06:46:16;101917.19;;;12.96;100.00
59103;BME280;43999;51.660;5.616;2023-05-23T06:48:44;101915.41;;;12.96;100.00
59103;BME280;43999;51.660;5.616;2023-05-23T06:51:11;101925.09;;;12.96;100.00
59103;BME280;43999;51.660;5.616;2023-05-23T06:53:40;101929.66;;;12.92;100.00
59103;BME280;43999;51.660;5.616;2023-05-23T06:56:07;101924.47;;;12.90;100.00
59103;BME280;43999;51.660;5.616;2023-05-23T06:58:47;101927.09;;;12.90;100.00
59103;BME280;43999;51.660;5.616;2023-05-23T07:01:14;101932.97;;;12.96;100.00
59103;BME280;43999;51.660;5.616;2023-05-23T07:03:46;101937.13;;;13.01;100.00
59103;BME280;43999;51.660;5.616;2023-05-23T07:06:13;101941.94;;;13.11;100.00
59103;BME280;43999;51.660;5.616;2023-05-23T07:08:41;101938.09;;;13.18;100.00
59103;BME280;43999;51.660;5.616;2023-05-23T07:11:09;101946.59;;;13.23;100.00
59103;BME280;43999;51.660;5.616;2023-05-23T07:13:39;101947.13;;;13.31;100.00
59103;BME280;43999;51.660;5.616;2023-05-23T07:16:09;101953.50;;;13.44;100.00
59103;BME280;43999;51.660;5.616;2023-05-23T07:18:45;101955.63;;;13.55;100.00
59103;BME280;43999;51.660;5.616;2023-05-23T07:21:13;101961.31;;;13.65;100.00
59103;BME280;43999;51.660;5.616;2023-05-23T07:23:40;101969.84;;;13.70;100.00
59103;BME280;43999;51.660;5.616;2023-05-23T07:26:10;101953.19;;;13.70;100.00
59103;BME280;43999;51.660;5.616;2023-05-23T07:28:49;101966.97;;;13.75;100.00
59103;BME280;43999;51.660;5.616;2023-05-23T07:31:18;101949.72;;;13.87;100.00
59103;BME280;43999;51.660;5.616;2023-05-23T07:33:46;101946.47;;;13.99;100.00
59103;BME280;43999;51.660;5.616;2023-05-23T07:36:20;101957.91;;;14.15;100.00
59103;BME280;43999;51.660;5.616;2023-05-23T07:38:50;101971.25;;;14.30;100.00
59103;BME280;43999;51.660;5.616;2023-05-23T07:41:19;101964.56;;;14.40;100.00
59103;BME280;43999;51.660;5.616;2023-05-23T07:43:46;101977.44;;;14.46;100.00
59103;BME280;43999;51.660;5.616;2023-05-23T07:46:14;101963.63;;;14.41;100.00
59103;BME280;43999;51.660;5.616;2023-05-23T07:48:44;101963.88;;;14.37;100.00
59103;BME280;43999;51.660;5.616;2023-05-23T07:51:13;101973.03;;;14.29;100.00
59103;BME280;43999;51.660;5.616;2023-05-23T07:53:41;101970.53;;;14.26;100.00
59103;BME280;43999;51.660;5.616;2023-05-23T07:56:13;101975.38;;;14.18;100.00
59103;BME280;43999;51.660;5.616;2023-05-23T07:58:42;101982.50;;;14.16;100.00
59103;BME280;43999;51.660;5.616;2023-05-23T08:01:10;101974.91;;;14.10;100.00
59103;BME280;43999;51.660;5.616;2023-05-23T08:03:55;101963.81;;;14.03;100.00
59103;BME280;43999;51.660;5.616;2023-05-23T08:06:31;101985.38;;;14.11;100.00
59103;BME280;43999;51.660;5.616;2023-05-23T08:09:01;101980.19;;;14.10;100.00
59103;BME280;43999;51.660;5.616;2023-05-23T08:11:30;101985.31;;;14.13;100.00
59103;BME280;43999;51.660;5.616;2023-05-23T08:13:59;101981.63;;;14.15;100.00
59103;BME280;43999;51.660;5.616;2023-05-23T08:16:47;101992.19;;;14.15;100.00
59103;BME280;43999;51.660;5.616;2023-05-23T08:19:20;101983.72;;;14.26;100.00
59103;BME280;43999;51.660;5.616;2023-05-23T08:21:48;101992.88;;;14.37;100.00
59103;BME280;43999;51.660;5.616;2023-05-23T08:24:15;101994.03;;;14.48;100.00
59103;BME280;43999;51.660;5.616;2023-05-23T08:26:44;101993.31;;;14.62;100.00
59103;BME280;43999;51.660;5.616;2023-05-23T08:29:14;101995.78;;;14.65;100.00
59103;BME280;43999;51.660;5.616;2023-05-23T08:31:42;101989.84;;;14.62;100.00
59103;BME280;43999;51.660;5.616;2023-05-23T08:34:11;101994.72;;;14.52;100.00
59103;BME280;43999;51.660;5.616;2023-05-23T08:36:39;101991.72;;;14.42;100.00
59103;BME280;43999;51.660;5.616;2023-05-23T08:39:13;102004.50;;;14.32;100.00
59103;BME280;43999;51.660;5.616;2023-05-23T08:41:48;102002.03;;;14.29;100.00
59103;BME280;43999;51.660;5.616;2023-05-23T08:44:15;101993.19;;;14.30;100.00
59103;BME280;43999;51.660;5.616;2023-05-23T08:46:52;101997.16;;;14.39;100.00
59103;BME280;43999;51.660;5.616;2023-05-23T08:49:51;102009.75;;;14.50;100.00
59103;BME280;43999;51.660;5.616;2023-05-23T08:52:24;102009.78;;;14.67;100.00
59103;BME280;43999;51.660;5.616;2023-05-23T08:55:00;102007.56;;;14.76;100.00
59103;BME280;43999;51.660;5.616;2023-05-23T08:57:30;102009.94;;;14.64;100.00
59103;BME280;43999;51.660;5.616;2023-05-23T09:00:08;102018.00;;;14.61;100.00
59103;BME280;43999;51.660;5.616;2023-05-23T09:02:45;102027.53;;;14.64;100.00
59103;BME280;43999;51.660;5.616;2023-05-23T09:05:32;102024.13;;;14.62;100.00
59103;BME280;43999;51.660;5.616;2023-05-23T09:08:00;102037.94;;;14.67;99.00
59103;BME280;43999;51.660;5.616;2023-05-23T09:10:29;102027.44;;;14.65;98.86
59103;BME280;43999;51.660;5.616;2023-05-23T09:12:59;102027.22;;;14.70;98.61
59103;BME280;43999;51.660;5.616;2023-05-23T09:15:30;102030.56;;;14.74;99.10
59103;BME280;43999;51.660;5.616;2023-05-23T09:17:59;102031.53;;;14.88;99.75
59103;BME280;43999;51.660;5.616;2023-05-23T09:20:29;102029.31;;;15.46;96.99
59103;BME280;43999;51.660;5.616;2023-05-23T09:23:14;102037.19;;;15.94;86.52
59103;BME280;43999;51.660;5.616;2023-05-23T09:25:47;102032.97;;;15.75;89.10
59103;BME280;43999;51.660;5.616;2023-05-23T09:28:15;102034.75;;;15.59;90.80
59103;BME280;43999;51.660;5.616;2023-05-23T09:30:43;102043.19;;;15.50;90.86
59103;BME280;43999;51.660;5.616;2023-05-23T09:33:13;102051.38;;;15.45;89.55
59103;BME280;43999;51.660;5.616;2023-05-23T09:35:44;102040.88;;;15.44;89.12
59103;BME280;43999;51.660;5.616;2023-05-23T09:38:12;102041.94;;;15.57;85.34
59103;BME280;43999;51.660;5.616;2023-05-23T09:40:44;102038.16;;;15.45;87.47
59103;BME280;43999;51.660;5.616;2023-05-23T09:43:16;102044.88;;;15.35;90.33
59103;BME280;43999;51.660;5.616;2023-05-23T09:45:48;102044.53;;;15.41;88.71
59103;BME280;43999;51.660;5.616;2023-05-23T09:48:16;102040.56;;;15.50;88.56
59103;BME280;43999;51.660;5.616;2023-05-23T09:50:45;102042.75;;;15.73;87.71
59103;BME280;43999;51.660;5.616;2023-05-23T09:53:17;102039.84;;;16.10;82.05
59103;BME280;43999;51.660;5.616;2023-05-23T09:55:50;102029.53;;;16.05;83.27
59103;BME280;43999;51.660;5.616;2023-05-23T09:58:19;102040.94;;;16.06;84.60
59103;BME280;43999;51.660;5.616;2023-05-23T10:00:50;102053.06;;;16.10;81.26
59103;BME280;43999;51.660;5.616;2023-05-23T10:03:29;102042.41;;;15.95;81.99
59103;BME280;43999;51.660;5.616;2023-05-23T10:06:09;102058.16;;;15.97;81.43
59103;BME280;43999;51.660;5.616;2023-05-23T10:08:49;102051.63;;;15.88;80.42
59103;BME280;43999;51.660;5.616;2023-05-23T10:15:03;102043.41;;;16.39;79.65
59103;BME280;43999;51.660;5.616;2023-05-23T10:20:53;102046.00;;;16.70;77.88
59103;BME280;43999;51.660;5.616;2023-05-23T10:23:28;102047.84;;;16.98;77.16
59103;BME280;43999;51.660;5.616;2023-05-23T10:25:59;102062.59;;;17.31;72.62
59103;BME280;43999;51.660;5.616;2023-05-23T10:28:26;102059.84;;;17.32;71.62
59103;BME280;43999;51.660;5.616;2023-05-23T10:30:54;102058.91;;;17.61;73.31
59103;BME280;43999;51.660;5.616;2023-05-23T10:33:22;102059.25;;;17.69;72.12
59103;BME280;43999;51.660;5.616;2023-05-23T10:39:04;102073.34;;;17.84;67.14
59103;BME280;43999;51.660;5.616;2023-05-23T10:41:47;102059.06;;;17.72;66.28
59103;BME280;43999;51.660;5.616;2023-05-23T10:44:29;102056.28;;;17.88;67.08
59103;BME280;43999;51.660;5.616;2023-05-23T10:46:59;102049.50;;;18.24;64.78
59103;BME280;43999;51.660;5.616;2023-05-23T10:49:45;102057.94;;;18.82;60.51
59103;BME280;43999;51.660;5.616;2023-05-23T10:52:19;102036.78;;;19.32;57.12
59103;BME280;43999;51.660;5.616;2023-05-23T10:54:54;102044.75;;;19.19;58.24
59103;BME280;43999;51.660;5.616;2023-05-23T10:57:25;102042.59;;;18.87;60.69
59103;BME280;43999;51.660;5.616;2023-05-23T10:59:56;102042.56;;;19.00;63.37
59103;BME280;43999;51.660;5.616;2023-05-23T11:02:28;102043.88;;;19.31;60.82
59103;BME280;43999;51.660;5.616;2023-05-23T11:05:23;102044.13;;;19.15;60.51
59103;BME280;43999;51.660;5.616;2023-05-23T11:08:13;102047.84;;;19.50;58.57
59103;BME280;43999;51.660;5.616;2023-05-23T11:11:00;102042.97;;;19.81;57.82
59103;BME280;43999;51.660;5.616;2023-05-23T11:13:56;102040.81;;;20.10;55.12
59103;BME280;43999;51.660;5.616;2023-05-23T11:16:40;102046.00;;;20.12;53.60
59103;BME280;43999;51.660;5.616;2023-05-23T11:21:52;102040.59;;;19.65;54.05
59103;BME280;43999;51.660;5.616;2023-05-23T11:24:54;102043.28;;;19.76;54.33
59103;BME280;43999;51.660;5.616;2023-05-23T11:27:33;102049.69;;;19.74;51.58
59103;BME280;43999;51.660;5.616;2023-05-23T11:30:14;102047.50;;;19.67;50.32
59103;BME280;43999;51.660;5.616;2023-05-23T11:32:52;102041.94;;;19.46;51.36
59103;BME280;43999;51.660;5.616;2023-05-23T11:35:24;102053.22;;;19.37;54.02
59103;BME280;43999;51.660;5.616;2023-05-23T11:37:55;102048.50;;;19.16;57.33
59103;BME280;43999;51.660;5.616;2023-05-23T11:40:35;102051.16;;;18.91;55.85
59103;BME280;43999;51.660;5.616;2023-05-23T11:43:13;102047.13;;;18.85;58.78
59103;BME280;43999;51.660;5.616;2023-05-23T11:45:45;102054.47;;;19.07;56.19
59103;BME280;43999;51.660;5.616;2023-05-23T11:48:15;102064.72;;;19.25;56.40
59103;BME280;43999;51.660;5.616;2023-05-23T11:50:51;102047.84;;;19.50;52.88
59103;BME280;43999;51.660;5.616;2023-05-23T11:53:21;102053.03;;;19.27;54.16
59103;BME280;43999;51.660;5.616;2023-05-23T11:55:55;102055.16;;;19.22;55.37
59103;BME280;43999;51.660;5.616;2023-05-23T11:58:50;102060.69;;;19.32;53.82
59103;BME280;43999;51.660;5.616;2023-05-23T12:01:18;102050.81;;;19.21;55.98
59103;BME280;43999;51.660;5.616;2023-05-23T12:03:47;102052.59;;;19.33;53.90
59103;BME280;43999;51.660;5.616;2023-05-23T12:06:21;102050.50;;;19.26;52.60
59103;BME280;43999;51.660;5.616;2023-05-23T12:08:51;102066.66;;;19.10;53.85
59103;BME280;43999;51.660;5.616;2023-05-23T12:11:19;102066.00;;;18.80;56.50
59103;BME280;43999;51.660;5.616;2023-05-23T12:13:46;102068.34;;;18.59;58.03
59103;BME280;43999;51.660;5.616;2023-05-23T12:16:14;102064.72;;;18.60;57.45
59103;BME280;43999;51.660;5.616;2023-05-23T12:18:42;102069.72;;;18.65;54.67
59103;BME280;43999;51.660;5.616;2023-05-23T12:21:10;102066.97;;;18.54;55.33
59103;BME280;43999;51.660;5.616;2023-05-23T12:23:38;102075.13;;;18.63;53.82
59103;BME280;43999;51.660;5.616;2023-05-23T12:26:07;102068.66;;;18.42;55.11
59103;BME280;43999;51.660;5.616;2023-05-23T12:28:42;102077.84;;;18.23;58.87
59103;BME280;43999;51.660;5.616;2023-05-23T12:31:20;102087.69;;;18.21;55.06
59103;BME280;43999;51.660;5.616;2023-05-23T12:33:52;102077.75;;;18.25;56.90
59103;BME280;43999;51.660;5.616;2023-05-23T12:36:25;102090.22;;;18.50;54.38
59103;BME280;43999;51.660;5.616;2023-05-23T12:39:03;102077.56;;;18.41;57.29
59103;BME280;43999;51.660;5.616;2023-05-23T12:41:35;102074.28;;;18.37;55.60
59103;BME280;43999;51.660;5.616;2023-05-23T12:44:02;102091.25;;;18.35;55.75
59103;BME280;43999;51.660;5.616;2023-05-23T12:46:31;102097.59;;;18.32;55.50
59103;BME280;43999;51.660;5.616;2023-05-23T12:48:58;102095.03;;;18.18;54.76
59103;BME280;43999;51.660;5.616;2023-05-23T12:51:27;102098.53;;;17.91;55.60
59103;BME280;43999;51.660;5.616;2023-05-23T12:53:56;102095.28;;;17.86;56.13
59103;BME280;43999;51.660;5.616;2023-05-23T12:56:24;102098.16;;;17.97;57.39
59103;BME280;43999;51.660;5.616;2023-05-23T12:58:52;102083.78;;;18.14;57.47
59103;BME280;43999;51.660;5.616;2023-05-23T13:01:20;102087.97;;;18.31;53.10
59103;BME280;43999;51.660;5.616;2023-05-23T13:03:48;102098.56;;;18.31;54.16
59103;BME280;43999;51.660;5.616;2023-05-23T13:06:17;102088.00;;;18.17;55.16
59103;BME280;43999;51.660;5.616;2023-05-23T13:08:44;102085.03;;;18.08;55.52
59103;BME280;43999;51.660;5.616;2023-05-23T13:11:11;102088.50;;;18.09;55.30
59103;BME280;43999;51.660;5.616;2023-05-23T13:13:39;102091.97;;;17.97;54.34
59103;BME280;43999;51.660;5.616;2023-05-23T13:16:06;102093.28;;;18.04;53.48
59103;BME280;43999;51.660;5.616;2023-05-23T13:18:35;102085.13;;;18.07;54.64
59103;BME280;43999;51.660;5.616;2023-05-23T13:21:03;102084.91;;;18.10;52.03